General Aviation Weather

Text Reports

Enter one or more of the following location identifiers separated by a space:

Zip Code, Four-Character ICAO or Three-Character IATA airport codes.

METAR - Aviation Routine Weather Report
KGTU - Georgetown, Texas
Updated at 2:50 AM GMT on February 11, 2016 (8:50 PM CST):
METAR KGTU 110250Z 20009KT 10SM CLR 16/01 A3016
TAF - Terminal Area Forecast
KGTU - Georgetown, Texas
Updated at 2:50 AM GMT on February 11, 2016 (8:50 PM CST):
No TAF is currently available for this location.
Decoded:
No decoded TAF is available.
PIREP - Pilot Weather Report
KGTU - Georgetown, Texas
Updated at 2:50 AM GMT on February 11, 2016 (8:50 PM CST):
No PIREP is currently available for this location.
AIRMET - Airmens Meteorological Information
KGTU - Georgetown, Texas
Updated at 2:50 AM GMT on February 11, 2016 (8:50 PM CST):
No AIRMET is currently available for this location.
SIGMET - Significant Meteorological Information
KGTU - Georgetown, Texas
Updated at 2:50 AM GMT on February 11, 2016 (8:50 PM CST):
No SIGMET is currently available for this location.
NOTAM - Notice to Airmen
KGTU - Georgetown, Texas
Updated at 2:50 AM GMT on February 11, 2016 (8:50 PM CST):
No NOTAM is currently available for this location.
Forecast Area
KGTU - Georgetown, Texas
Updated at 2:50 AM GMT on February 11, 2016 (8:50 PM CST):
No NOTAM is currently available for this location.
Aviation Weather Maps